Time;durP1;ratioP1;P1;durP2;ratioP2;P2;SDS_P1;SDS_P2;PMS_P1;PMS_P2;Temp;Humidity;BMP_temperature;BMP_pressure;BME280_temperature;BME280_humidity;BME280_pressure;Samples;Min_cycle;Max_cycle;Signal;HPM_P1;HPM_P2
2022/07/02 00:00:45;;;;;;;4.10;0.83;;;;;;;18.14;62.66;100999.75;5029640;28;20385;-75
2022/07/02 00:03:15;;;;;;;1.23;1.10;;;;;;;18.24;62.10;100995.34;5026014;28;20461;-75
2022/07/02 00:05:46;;;;;;;0.73;0.73;;;;;;;18.25;61.77;100988.72;5031678;28;20387;-75
2022/07/02 00:08:12;;;;;;;4.50;0.70;;;;;;;18.28;61.53;100993.63;5019515;28;20436;-75
2022/07/02 00:10:38;;;;;;;0.55;0.55;;;;;;;18.29;61.06;100982.41;5029877;28;20395;-75
2022/07/02 00:13:05;;;;;;;1.07;0.70;;;;;;;18.24;60.65;100985.19;5025952;28;20449;-75
2022/07/02 00:15:30;;;;;;;0.70;0.70;;;;;;;18.17;60.85;100992.91;5030386;28;20395;-75
2022/07/02 00:17:56;;;;;;;2.13;0.70;;;;;;;18.08;61.26;100992.66;5031210;28;20399;-75
2022/07/02 00:20:22;;;;;;;4.10;0.73;;;;;;;17.94;61.61;100993.56;5018497;28;21000;-75
2022/07/02 00:22:48;;;;;;;2.10;0.60;;;;;;;17.88;61.56;100991.94;4997882;28;20470;-75
2022/07/02 00:25:13;;;;;;;3.38;0.77;;;;;;;17.82;61.75;100984.81;5021325;28;20425;-75
2022/07/02 00:27:42;;;;;;;1.80;0.60;;;;;;;17.82;61.87;100984.81;5025346;28;20536;-75
2022/07/02 00:30:08;;;;;;;2.33;0.93;;;;;;;17.87;61.46;100979.31;5015715;28;20889;-75
2022/07/02 00:32:35;;;;;;;2.55;0.80;;;;;;;17.85;61.42;100976.06;5030878;28;20418;-76
2022/07/02 00:35:08;;;;;;;0.90;0.90;;;;;;;17.77;61.42;100980.19;5031517;28;20388;-75
2022/07/02 00:37:33;;;;;;;2.95;0.65;;;;;;;17.85;61.75;100989.75;5015940;28;20777;-75
2022/07/02 00:39:59;;;;;;;2.70;0.70;;;;;;;17.91;61.47;100981.22;5042888;28;20399;-75
2022/07/02 00:42:25;;;;;;;0.63;0.63;;;;;;;17.99;61.15;100977.06;5023798;28;20449;-75
2022/07/02 00:44:51;;;;;;;0.50;0.45;;;;;;;18.04;60.98;100986.09;5020788;28;20393;-75
2022/07/02 00:47:19;;;;;;;1.67;0.68;;;;;;;17.96;61.16;100981.19;5011411;28;20452;-75
2022/07/02 00:49:45;;;;;;;0.77;0.77;;;;;;;17.85;61.44;100987.81;5027943;28;20466;-75
2022/07/02 00:52:10;;;;;;;1.90;0.60;;;;;;;17.83;61.60;100979.06;5008129;28;20930;-75
2022/07/02 00:54:35;;;;;;;1.27;0.60;;;;;;;17.80;61.71;100990.59;5019263;28;20387;-75
2022/07/02 00:57:02;;;;;;;1.40;0.87;;;;;;;17.80;61.52;100996.06;5030901;28;20410;-75
2022/07/02 00:59:28;;;;;;;0.70;0.68;;;;;;;17.79;61.66;100996.34;5028242;28;20897;-75
2022/07/02 01:01:54;;;;;;;3.00;0.88;;;;;;;17.76;61.49;100994.97;5045974;28;20475;-75
2022/07/02 01:04:19;;;;;;;1.33;0.67;;;;;;;17.71;61.66;100992.28;5030915;28;20423;-75
2022/07/02 01:06:48;;;;;;;1.23;0.80;;;;;;;17.70;61.65;100998.84;5030576;28;20394;-75
2022/07/02 01:12:00;;;;;;;1.63;0.60;;;;;;;17.71;61.99;100991.44;5007608;28;20951;-75
2022/07/02 01:14:27;;;;;;;2.35;0.75;;;;;;;17.71;61.99;100988.72;5050380;28;20433;-75
2022/07/02 01:16:53;;;;;;;1.95;0.82;;;;;;;17.70;61.98;100976.09;5034608;28;20395;-75
2022/07/02 01:19:20;;;;;;;2.28;0.50;;;;;;;17.72;61.91;100982.09;5018742;28;20473;-75
2022/07/02 01:22:09;;;;;;;2.33;1.00;;;;;;;17.68;62.03;100981.88;5049952;28;20387;-75
2022/07/02 01:24:35;;;;;;;1.45;0.70;;;;;;;17.66;62.13;100981.31;5034930;28;20391;-75
2022/07/02 01:27:00;;;;;;;1.60;0.87;;;;;;;17.63;62.37;100984.59;5030218;28;20387;-75
2022/07/02 01:29:25;;;;;;;3.10;1.10;;;;;;;17.64;62.34;100983.50;5027171;28;20469;-75
2022/07/02 01:31:51;;;;;;;1.23;0.60;;;;;;;17.66;62.36;100978.56;5034287;28;20411;-75
2022/07/02 01:34:16;;;;;;;2.40;0.60;;;;;;;17.68;62.30;100979.13;5034791;28;20391;-75
2022/07/02 01:36:41;;;;;;;1.30;0.70;;;;;;;17.67;61.97;100984.88;5025526;28;20416;-75
2022/07/02 01:39:06;;;;;;;0.70;0.70;;;;;;;17.56;62.05;100976.69;5032898;28;20458;-75
2022/07/02 01:41:40;;;;;;;2.20;0.60;;;;;;;17.47;62.20;100978.31;5025076;28;20410;-75
2022/07/02 01:44:07;;;;;;;1.45;0.52;;;;;;;17.35;62.58;100975.06;5034583;28;20391;-75
2022/07/02 01:46:32;;;;;;;0.80;0.80;;;;;;;17.32;62.71;100980.28;5015915;28;20418;-75
2022/07/02 01:48:58;;;;;;;2.30;1.00;;;;;;;17.19;62.98;100973.44;5032877;28;20766;-75
2022/07/02 01:51:23;;;;;;;1.10;0.90;;;;;;;17.11;63.32;100969.34;5046274;28;20407;-75
2022/07/02 01:53:48;;;;;;;2.10;0.60;;;;;;;17.12;63.23;100976.44;5034336;28;20394;-75
2022/07/02 01:56:14;;;;;;;1.40;0.50;;;;;;;17.18;63.08;100971.81;5016887;28;20920;-75
2022/07/02 01:58:39;;;;;;;0.63;0.63;;;;;;;17.21;62.79;100973.16;5028403;28;20788;-75
2022/07/02 02:01:04;;;;;;;2.90;0.60;;;;;;;17.18;62.81;100974.53;5014494;28;20403;-75
2022/07/02 02:03:30;;;;;;;0.80;0.63;;;;;;;17.00;63.14;100969.63;5034129;28;20890;-75
2022/07/02 02:05:55;;;;;;;1.20;0.90;;;;;;;16.97;63.02;100971.00;5012071;28;20414;-75
2022/07/02 02:08:20;;;;;;;3.37;0.77;;;;;;;16.82;63.34;100972.94;5036070;28;20422;-75
2022/07/02 02:10:46;;;;;;;0.90;0.80;;;;;;;16.66;63.90;100971.28;5030893;28;20561;-75
2022/07/02 02:13:11;;;;;;;1.50;0.80;;;;;;;16.72;64.16;100978.41;5034060;28;20409;-75
2022/07/02 02:15:36;;;;;;;1.00;0.80;;;;;;;16.79;64.08;100971.56;5017433;28;20410;-75
2022/07/02 02:18:01;;;;;;;1.50;0.80;;;;;;;16.85;63.92;100972.38;5016280;28;20416;-75
2022/07/02 02:20:27;;;;;;;1.60;0.97;;;;;;;16.74;63.98;100973.44;5018755;28;20776;-75
2022/07/02 02:22:52;;;;;;;1.33;0.80;;;;;;;16.77;63.84;100975.66;5043000;28;20417;-75
2022/07/02 02:25:17;;;;;;;1.23;0.63;;;;;;;16.82;63.52;100972.94;5015739;28;20755;-76
2022/07/02 02:27:42;;;;;;;1.80;0.60;;;;;;;16.87;63.43;100961.97;5008614;28;20410;-75
2022/07/02 02:30:08;;;;;;;1.10;0.60;;;;;;;16.86;63.51;100977.56;5030013;28;20407;-75
2022/07/02 02:32:36;;;;;;;4.50;0.95;;;;;;;16.87;63.42;100961.97;5024914;28;20518;-75
2022/07/02 02:35:02;;;;;;;1.10;0.47;;;;;;;16.87;63.41;100975.66;5019846;28;20786;-75
2022/07/02 02:37:28;;;;;;;1.98;0.77;;;;;;;16.79;63.71;100970.75;5048837;28;20399;-76
2022/07/02 02:39:53;;;;;;;0.60;0.60;;;;;;;16.79;63.97;100974.31;5032834;28;20391;-76
2022/07/02 02:42:18;;;;;;;1.07;0.70;;;;;;;16.85;63.81;100967.72;5025281;28;20410;-75
2022/07/02 02:44:44;;;;;;;0.70;0.70;;;;;;;16.85;63.81;100969.63;5024543;28;20448;-75
2022/07/02 02:47:09;;;;;;;0.85;0.60;;;;;;;16.86;63.94;100974.03;5033547;28;20395;-75
2022/07/02 02:49:34;;;;;;;0.60;0.60;;;;;;;16.85;63.70;100962.25;5009204;28;20417;-76
2022/07/02 02:51:59;;;;;;;2.27;0.67;;;;;;;16.83;63.68;100972.63;5018126;28;20407;-75
2022/07/02 02:54:25;;;;;;;1.70;0.60;;;;;;;16.84;63.88;100978.94;5033227;28;20399;-75
2022/07/02 02:56:50;;;;;;;1.70;0.60;;;;;;;16.86;63.97;100972.09;5026765;28;20434;-75
2022/07/02 02:59:15;;;;;;;0.63;0.53;;;;;;;16.85;63.76;100970.47;5013114;28;20485;-75
2022/07/02 03:01:40;;;;;;;2.20;0.70;;;;;;;16.87;63.49;100981.13;5030771;28;20392;-75
2022/07/02 03:04:06;;;;;;;1.50;0.87;;;;;;;16.84;63.41;100979.75;5032944;28;20758;-75
2022/07/02 03:06:31;;;;;;;1.30;0.40;;;;;;;16.79;63.26;100978.94;5019871;28;20826;-75
2022/07/02 03:08:56;;;;;;;0.53;0.53;;;;;;;16.72;63.01;100979.22;5021453;28;20407;-75
2022/07/02 03:11:21;;;;;;;0.80;0.70;;;;;;;16.55;63.07;100976.75;5020411;28;20426;-75
2022/07/02 03:13:47;;;;;;;1.80;1.00;;;;;;;16.49;63.31;100986.00;5031737;28;20387;-75
2022/07/02 03:16:12;;;;;;;1.17;0.68;;;;;;;16.46;63.28;100983.81;5024515;28;20890;-75
2022/07/02 03:18:37;;;;;;;1.20;0.60;;;;;;;16.49;63.05;100987.91;5018817;28;20662;-75
2022/07/02 03:21:03;;;;;;;3.00;0.70;;;;;;;16.36;63.01;100981.06;5031815;28;20881;-75
2022/07/02 03:23:28;;;;;;;2.30;0.50;;;;;;;16.24;63.52;100983.19;5007510;28;20492;-75
2022/07/02 03:25:54;;;;;;;2.67;0.68;;;;;;;16.26;63.38;100994.69;5011136;28;20414;-75
2022/07/02 03:28:19;;;;;;;1.17;0.57;;;;;;;16.31;63.36;100985.66;5032489;28;20496;-75
2022/07/02 03:30:44;;;;;;;1.60;0.60;;;;;;;16.27;63.45;100992.78;5020189;28;20431;-75
2022/07/02 03:33:09;;;;;;;2.07;0.60;;;;;;;16.30;63.21;100995.00;5021900;28;20425;-75
2022/07/02 03:35:35;;;;;;;2.10;0.60;;;;;;;16.29;63.41;100999.63;5016510;28;20427;-75
2022/07/02 03:38:01;;;;;;;0.90;0.60;;;;;;;16.30;63.45;100995.00;5032303;28;20407;-75
2022/07/02 03:40:27;;;;;;;1.42;0.60;;;;;;;16.29;63.18;101001.53;5018430;28;20912;-75
2022/07/02 03:42:52;;;;;;;1.77;0.55;;;;;;;16.27;63.72;101001.00;5029424;28;20454;-75
2022/07/02 03:45:18;;;;;;;2.07;0.77;;;;;;;16.31;63.29;101013.03;5032200;28;20554;-75
2022/07/02 03:47:43;;;;;;;1.47;0.50;;;;;;;16.26;63.53;101008.38;5029724;28;20421;-75
2022/07/02 03:50:08;;;;;;;2.83;0.70;;;;;;;16.23;63.71;101011.66;5029963;28;20425;-75
2022/07/02 03:52:34;;;;;;;0.57;0.43;;;;;;;16.19;63.92;101007.81;5041050;28;20409;-75
2022/07/02 03:55:00;;;;;;;3.88;0.75;;;;;;;16.30;63.70;101020.41;5031951;28;20407;-75
2022/07/02 03:57:25;;;;;;;1.60;0.53;;;;;;;16.37;63.70;101014.69;5020833;28;20766;-75
2022/07/02 03:59:50;;;;;;;1.17;0.65;;;;;;;16.44;63.62;101013.34;5016841;28;20874;-75
2022/07/02 04:02:16;;;;;;;2.57;0.77;;;;;;;16.48;63.53;101013.63;5032113;28;20391;-75
2022/07/02 04:04:41;;;;;;;1.73;0.70;;;;;;;16.45;63.39;101004.03;5029949;28;20876;-75
2022/07/02 04:07:06;;;;;;;0.60;0.60;;;;;;;16.45;63.70;101001.31;5023509;28;20407;-75
2022/07/02 04:09:31;;;;;;;0.90;0.40;;;;;;;16.37;63.75;101001.81;5022158;28;20433;-75
2022/07/02 04:11:57;;;;;;;2.20;0.50;;;;;;;16.38;63.70;101008.94;5022969;28;20401;-75
2022/07/02 04:14:22;;;;;;;0.57;0.50;;;;;;;16.37;63.77;101001.81;5029076;28;20481;-75
2022/07/02 04:16:47;;;;;;;0.90;0.40;;;;;;;16.39;63.86;101010.59;5025177;28;20946;-75
2022/07/02 04:19:13;;;;;;;1.07;0.73;;;;;;;16.49;63.52;101015.28;5006112;28;20468;-75
2022/07/02 04:21:38;;;;;;;0.50;0.43;;;;;;;16.60;63.48;101004.09;5012006;28;20487;-75
2022/07/02 04:24:03;;;;;;;2.47;0.70;;;;;;;16.64;63.57;101009.84;4998143;28;20430;-75
2022/07/02 04:26:28;;;;;;;1.53;0.47;;;;;;;16.66;63.74;101001.38;5027638;28;20404;-75
2022/07/02 04:28:54;;;;;;;4.50;0.60;;;;;;;16.66;63.37;101004.13;5011976;28;20412;-75
2022/07/02 04:31:19;;;;;;;1.97;0.47;;;;;;;16.64;63.31;100993.44;5011422;28;20409;-75
2022/07/02 04:33:45;;;;;;;1.77;0.50;;;;;;;16.62;63.57;100992.06;5025222;28;20414;-75
2022/07/02 04:36:10;;;;;;;1.75;0.55;;;;;;;16.56;63.97;100997.50;5030695;28;20395;-75
2022/07/02 04:38:36;;;;;;;3.03;0.90;;;;;;;16.53;64.11;100999.97;4995507;28;20435;-75
2022/07/02 04:41:01;;;;;;;0.97;0.67;;;;;;;16.54;64.46;100991.47;5004705;28;20439;-75
2022/07/02 04:43:26;;;;;;;1.97;0.90;;;;;;;16.63;64.56;100997.25;5006486;28;20886;-75
2022/07/02 04:45:51;;;;;;;2.07;0.57;;;;;;;16.73;64.55;100997.25;5028536;28;20399;-75
2022/07/02 04:48:17;;;;;;;3.30;0.90;;;;;;;16.77;64.72;100995.63;5030077;28;20481;-75
2022/07/02 04:50:42;;;;;;;4.00;0.80;;;;;;;16.81;64.80;100998.66;5019100;28;20426;-75
2022/07/02 04:53:07;;;;;;;3.57;0.87;;;;;;;16.80;64.81;100994.25;5018983;28;20420;-75
2022/07/02 04:55:32;;;;;;;2.20;0.70;;;;;;;16.81;64.81;100984.97;5006700;28;20423;-75
2022/07/02 04:57:58;;;;;;;2.20;0.77;;;;;;;16.81;65.17;100988.53;5011851;28;20479;-75
2022/07/02 05:00:23;;;;;;;7.40;1.08;;;;;;;16.82;65.50;101000.28;5007041;28;20431;-75
2022/07/02 05:02:49;;;;;;;2.40;0.80;;;;;;;16.81;65.69;100993.16;5004520;28;20420;-75
2022/07/02 05:05:14;;;;;;;8.37;1.00;;;;;;;16.82;66.18;101000.28;5026915;28;20394;-75
2022/07/02 05:07:39;;;;;;;1.43;0.87;;;;;;;16.77;66.38;101001.09;5015083;28;20488;-76
2022/07/02 05:10:05;;;;;;;1.77;0.50;;;;;;;16.78;66.35;101000.03;4996942;28;20770;-76
2022/07/02 05:12:30;;;;;;;1.50;0.60;;;;;;;16.86;65.58;100998.66;5006905;28;20403;-75
2022/07/02 05:14:55;;;;;;;1.70;0.60;;;;;;;16.92;65.06;101001.13;5023865;28;20497;-77
2022/07/02 05:17:20;;;;;;;0.40;0.30;;;;;;;16.95;64.50;100997.00;5010634;28;20418;-78
2022/07/02 05:19:46;;;;;;;2.87;0.87;;;;;;;16.96;64.34;101001.38;5006391;28;20414;-77
2022/07/02 05:22:11;;;;;;;2.80;0.60;;;;;;;16.99;64.47;100998.13;5006525;28;20808;-78
2022/07/02 05:24:36;;;;;;;2.10;0.50;;;;;;;17.02;64.52;100995.66;5034399;28;20780;-77
2022/07/02 05:27:02;;;;;;;0.93;0.50;;;;;;;17.06;64.42;101002.19;5013862;28;20438;-77
2022/07/02 05:29:28;;;;;;;1.10;0.55;;;;;;;17.13;64.36;101000.00;5018006;28;20778;-75
2022/07/02 05:31:53;;;;;;;1.80;0.90;;;;;;;17.19;64.23;101000.81;4997345;28;20480;-76
2022/07/02 05:34:18;;;;;;;2.00;0.60;;;;;;;17.23;64.17;100998.34;5011274;28;20428;-79
2022/07/02 05:36:44;;;;;;;1.80;0.47;;;;;;;17.28;64.08;101003.84;5030408;28;20761;-75
2022/07/02 05:39:09;;;;;;;0.40;0.40;;;;;;;17.33;63.97;100998.34;5029572;28;20442;-75
2022/07/02 05:41:34;;;;;;;2.42;0.60;;;;;;;17.36;64.05;101004.09;5023455;28;20454;-85
2022/07/02 05:44:00;;;;;;;2.93;0.53;;;;;;;17.41;64.07;101006.00;5010626;28;20418;-76
2022/07/02 05:46:25;;;;;;;1.30;0.50;;;;;;;17.40;64.62;101004.34;5021759;28;20982;-76
2022/07/02 05:48:50;;;;;;;0.50;0.50;;;;;;;17.43;64.87;101003.81;5026056;28;20768;-75
2022/07/02 05:51:16;;;;;;;2.00;0.60;;;;;;;17.40;64.94;101002.44;4997308;28;20545;-75
2022/07/02 05:53:41;;;;;;;0.80;0.80;;;;;;;17.42;65.12;101005.72;5004573;28;20413;-75
2022/07/02 05:56:07;;;;;;;2.00;0.80;;;;;;;17.49;64.96;101006.25;5018642;28;20457;-75
2022/07/02 05:58:32;;;;;;;1.30;1.30;;;;;;;17.52;65.01;101005.69;5029135;28;20411;-75
2022/07/02 06:00:57;;;;;;;1.40;1.30;;;;;;;17.53;65.28;101006.53;5035373;28;20418;-74
2022/07/02 06:03:23;;;;;;;1.40;0.90;;;;;;;17.49;65.63;101006.25;5019020;28;20436;-76
2022/07/02 06:08:32;;;;;;;1.42;1.33;;;;;;;17.55;65.92;101009.81;5019646;28;20412;-75
2022/07/02 06:10:57;;;;;;;1.33;1.20;;;;;;;17.60;65.83;101007.91;5015232;28;20407;-75
2022/07/02 06:13:22;;;;;;;1.30;1.20;;;;;;;17.68;65.73;101009.28;5008134;28;20407;-76
2022/07/02 06:15:48;;;;;;;1.15;1.10;;;;;;;17.70;65.47;101007.06;5020944;28;20887;-76
2022/07/02 06:18:13;;;;;;;1.30;1.20;;;;;;;17.69;65.61;101012.81;5029056;28;20414;-76
2022/07/02 06:20:39;;;;;;;1.03;1.03;;;;;;;17.78;65.79;101024.88;5018086;28;20406;-76
2022/07/02 06:23:05;;;;;;;1.88;0.95;;;;;;;17.84;65.47;101018.28;5042268;28;20415;-76
2022/07/02 06:25:30;;;;;;;0.90;0.73;;;;;;;17.90;65.22;101015.22;5023273;28;20469;-77
2022/07/02 06:27:55;;;;;;;1.10;0.90;;;;;;;17.94;65.07;101004.53;5024314;28;20899;-76
2022/07/02 06:30:23;;;;;;;2.33;1.13;;;;;;;17.99;65.08;101016.28;5023847;28;20419;-76
2022/07/02 06:32:49;;;;;;;1.95;0.90;;;;;;;17.94;65.21;101010.00;5010567;28;20424;-76
2022/07/02 06:35:14;;;;;;;1.53;0.87;;;;;;;17.98;65.21;101013.84;5021535;28;20411;-75
2022/07/02 06:37:39;;;;;;;4.60;1.00;;;;;;;18.02;65.03;101006.66;5027806;28;20902;-75
2022/07/02 06:40:06;;;;;;;3.90;1.00;;;;;;;17.99;65.28;101002.56;5012029;28;20455;-75
2022/07/02 06:42:31;;;;;;;92.13;6.40;;;;;;;17.90;65.69;101003.44;5014991;28;20914;-78
2022/07/02 06:44:58;;;;;;;38.33;5.10;;;;;;;18.10;64.96;101001.44;5005286;28;20438;-76
2022/07/02 06:47:24;;;;;;;29.05;5.60;;;;;;;18.13;64.96;101005.53;5027632;28;20387;-76
2022/07/02 06:49:50;;;;;;;10.18;2.70;;;;;;;18.21;64.67;101004.13;5016329;28;20429;-75
2022/07/02 06:52:16;;;;;;;17.85;3.42;;;;;;;18.25;64.70;100994.22;5017531;28;20520;-76
2022/07/02 06:54:43;;;;;;;1.90;1.38;;;;;;;18.30;64.49;100996.94;5005335;28;20422;-76
2022/07/02 06:57:08;;;;;;;285.30;38.72;;;;;;;18.49;63.85;100992.44;5013075;28;20416;-76
2022/07/02 06:59:34;;;;;;;31.05;4.50;;;;;;;18.44;64.04;100993.28;5014118;28;20813;-76
2022/07/02 07:02:00;;;;;;;4.75;1.20;;;;;;;18.46;64.17;100985.59;5012214;28;20456;-74
2022/07/02 07:04:28;;;;;;;5.00;1.17;;;;;;;18.52;64.27;100987.22;5008479;28;20415;-74
2022/07/02 07:06:55;;;;;;;41.42;5.28;;;;;;;18.59;64.00;100993.22;5019008;28;20427;-79
2022/07/02 07:09:23;;;;;;;5.50;1.60;;;;;;;18.66;64.01;100992.91;5024649;28;20415;-77
2022/07/02 07:11:50;;;;;;;9.85;1.55;;;;;;;18.75;63.46;100987.59;5017575;28;20407;-77
2022/07/02 07:14:15;;;;;;;1.60;0.60;;;;;;;18.83;63.60;100992.50;5010149;28;20408;-78
2022/07/02 07:16:40;;;;;;;14.57;1.93;;;;;;;18.88;63.50;100992.44;5023194;28;20768;-77
2022/07/02 07:19:06;;;;;;;4.33;0.80;;;;;;;18.91;63.63;100989.94;5026802;28;20461;-77
2022/07/02 07:21:36;;;;;;;1.88;0.60;;;;;;;18.96;63.80;100997.34;5023087;28;20498;-77
2022/07/02 07:24:02;;;;;;;2.00;0.60;;;;;;;19.06;63.73;100987.09;5018605;28;20431;-76
2022/07/02 07:26:27;;;;;;;4.47;0.93;;;;;;;19.15;63.88;100987.28;5025582;28;20411;-76
2022/07/02 07:28:52;;;;;;;6.20;0.67;;;;;;;19.25;63.28;100978.94;5027930;28;20828;-77
2022/07/02 07:31:21;;;;;;;4.77;1.00;;;;;;;19.34;63.04;100992.84;5025422;28;20418;-76
2022/07/02 07:33:47;;;;;;;11.80;0.98;;;;;;;19.48;62.44;100982.84;5020902;28;20407;-76
2022/07/02 07:36:13;;;;;;;2.65;0.70;;;;;;;19.61;62.21;100971.16;5029537;28;20414;-78
2022/07/02 07:38:39;;;;;;;1.93;0.47;;;;;;;19.75;61.73;100976.78;5043833;28;20411;-77
2022/07/02 07:41:04;;;;;;;2.85;0.60;;;;;;;19.82;61.38;100974.50;5027859;28;20403;-76
2022/07/02 07:43:29;;;;;;;1.60;0.70;;;;;;;19.91;61.33;100968.06;5019511;28;20407;-76
2022/07/02 07:45:55;;;;;;;0.40;0.30;;;;;;;20.03;61.20;100973.13;5030149;28;20488;-76
2022/07/02 07:48:20;;;;;;;0.83;0.47;;;;;;;20.10;61.02;100971.66;5022238;28;20418;-77
2022/07/02 07:50:45;;;;;;;13.63;1.60;;;;;;;20.17;60.56;100974.84;5025022;28;20424;-76
2022/07/02 07:53:11;;;;;;;1.58;0.40;;;;;;;20.22;60.25;100970.41;5020407;28;20494;-77
2022/07/02 07:55:36;;;;;;;0.67;0.30;;;;;;;20.25;60.26;100958.81;5025256;28;20442;-77
2022/07/02 07:58:02;;;;;;;0.50;0.30;;;;;;;20.25;60.40;100959.63;5027561;28;20490;-77
2022/07/02 08:00:27;;;;;;;3.33;0.50;;;;;;;20.34;60.32;100960.63;5044701;28;20972;-76
2022/07/02 08:02:52;;;;;;;2.00;0.50;;;;;;;20.43;59.91;100950.56;5020823;28;20403;-75
2022/07/02 08:05:18;;;;;;;0.70;0.37;;;;;;;20.53;59.76;100949.59;5012108;28;20415;-75
2022/07/02 08:07:43;;;;;;;0.83;0.40;;;;;;;20.50;59.88;100948.25;5015897;28;20553;-74
2022/07/02 08:10:10;;;;;;;0.47;0.33;;;;;;;20.56;59.58;100943.47;5028538;28;20429;-75
2022/07/02 08:12:36;;;;;;;2.55;0.40;;;;;;;20.62;59.05;100937.59;5024446;28;20479;-74
2022/07/02 08:15:02;;;;;;;0.25;0.20;;;;;;;20.75;58.61;100937.97;5013948;28;20399;-75
2022/07/02 08:17:29;;;;;;;0.60;0.50;;;;;;;20.84;58.08;100938.91;5015767;28;20412;-74
2022/07/02 08:19:55;;;;;;;1.90;0.30;;;;;;;20.95;57.61;100940.34;4996183;28;20877;-74
2022/07/02 08:22:20;;;;;;;3.70;0.40;;;;;;;20.97;57.12;100930.69;5002597;28;20497;-75
2022/07/02 08:24:46;;;;;;;2.30;0.30;;;;;;;21.01;56.38;100923.41;5026316;28;20418;-74
2022/07/02 08:27:11;;;;;;;0.40;0.40;;;;;;;21.12;55.61;100927.69;5017218;28;20894;-74
2022/07/02 08:29:36;;;;;;;0.50;0.30;;;;;;;21.22;54.77;100929.41;4997008;28;20422;-76
2022/07/02 08:32:03;;;;;;;0.23;0.20;;;;;;;21.29;53.70;100921.56;5042893;28;20411;-76
2022/07/02 08:34:29;;;;;;;0.90;0.30;;;;;;;21.33;52.77;100917.09;5027077;28;20762;-76
2022/07/02 08:36:54;;;;;;;0.30;0.30;;;;;;;21.44;52.28;100917.72;5005072;28;20405;-74
2022/07/02 08:39:20;;;;;;;0.70;0.20;;;;;;;21.50;51.34;100911.78;5014026;28;20796;-75
2022/07/02 08:41:47;;;;;;;2.50;0.20;;;;;;;21.62;50.06;100917.59;5028306;28;20379;-75
2022/07/02 08:44:15;;;;;;;2.10;0.20;;;;;;;21.69;49.19;100911.69;5002609;28;20394;-77
2022/07/02 08:46:41;;;;;;;2.30;0.30;;;;;;;21.74;48.61;100917.06;5015956;28;20400;-74
2022/07/02 08:49:10;;;;;;;0.20;0.15;;;;;;;21.81;48.59;100911.97;5029592;28;20898;-73
2022/07/02 08:51:36;;;;;;;1.00;0.20;;;;;;;21.93;48.12;100908.72;5023095;28;20512;-75
2022/07/02 08:54:01;;;;;;;3.97;0.68;;;;;;;22.04;47.56;100904.59;5046289;28;20886;-75
2022/07/02 08:56:27;;;;;;;2.63;0.40;;;;;;;22.19;46.72;100896.78;5014910;28;20509;-74
2022/07/02 08:58:53;;;;;;;0.20;0.20;;;;;;;22.34;46.88;100894.78;5004793;28;20399;-74
2022/07/02 09:01:20;;;;;;;0.50;0.22;;;;;;;22.43;46.23;100899.25;5016010;28;20762;-73
2022/07/02 09:03:48;;;;;;;0.30;0.30;;;;;;;22.50;46.15;100885.81;5030791;28;20928;-74
2022/07/02 09:06:16;;;;;;;5.40;0.50;;;;;;;22.56;45.67;100887.31;5030856;28;20851;-74
2022/07/02 09:08:43;;;;;;;2.13;0.25;;;;;;;22.59;45.47;100880.38;5046071;28;20838;-73
2022/07/02 09:11:09;;;;;;;4.53;0.60;;;;;;;22.69;45.79;100880.13;5017031;28;20892;-74
2022/07/02 09:13:35;;;;;;;1.40;0.20;;;;;;;22.80;44.43;100887.03;5019227;28;20418;-74
2022/07/02 09:16:00;;;;;;;1.10;0.20;;;;;;;22.89;44.04;100887.06;5002864;28;20473;-74
2022/07/02 09:18:25;;;;;;;0.22;0.22;;;;;;;22.98;44.02;100880.47;5006660;28;20772;-74
2022/07/02 09:20:51;;;;;;;0.37;0.17;;;;;;;23.10;43.93;100880.69;5025950;28;20406;-75
2022/07/02 09:23:22;;;;;;;1.00;0.30;;;;;;;23.22;44.27;100885.59;5024070;28;20901;-75
2022/07/02 09:25:48;;;;;;;1.50;0.20;;;;;;;23.34;43.59;100874.78;5007271;28;20399;-74
2022/07/02 09:28:16;;;;;;;2.90;0.30;;;;;;;23.42;42.44;100887.00;5024754;28;20392;-74
2022/07/02 09:30:41;;;;;;;2.42;0.40;;;;;;;23.46;42.80;100877.75;5025480;28;20406;-74
2022/07/02 09:33:29;;;;;;;2.10;0.37;;;;;;;23.61;42.32;100876.53;5023120;28;20413;-75
2022/07/02 09:35:58;;;;;;;2.00;0.20;;;;;;;23.75;41.31;100877.19;5015940;28;20399;-75
2022/07/02 09:38:23;;;;;;;1.20;0.20;;;;;;;23.93;40.46;100881.63;5028055;28;20413;-74
2022/07/02 09:40:59;;;;;;;0.97;0.33;;;;;;;24.07;40.10;100879.50;5029347;28;20816;-74
2022/07/02 09:43:28;;;;;;;1.80;0.20;;;;;;;24.14;40.12;100882.63;5014091;28;20417;-74
2022/07/02 09:45:58;;;;;;;0.30;0.30;;;;;;;24.30;40.87;100876.63;5034413;28;20411;-74
2022/07/02 09:48:23;;;;;;;1.67;0.32;;;;;;;24.45;39.59;100876.13;5021217;28;20416;-74
2022/07/02 09:50:49;;;;;;;0.20;0.20;;;;;;;24.60;39.65;100870.88;5029635;28;20422;-74
2022/07/02 09:53:15;;;;;;;0.27;0.10;;;;;;;24.89;39.16;100872.16;5008984;28;20819;-74
2022/07/02 09:55:40;;;;;;;3.20;0.30;;;;;;;25.00;38.47;100865.91;5026233;28;20542;-74
2022/07/02 09:58:08;;;;;;;0.40;0.20;;;;;;;25.13;38.10;100875.16;5028747;28;20485;-73
2022/07/02 10:00:47;;;;;;;0.60;0.20;;;;;;;25.44;37.72;100872.91;5027119;28;20409;-74
2022/07/02 10:03:12;;;;;;;2.80;0.30;;;;;;;25.96;37.04;100875.41;5018938;28;20414;-73
2022/07/02 10:05:37;;;;;;;1.05;0.30;;;;;;;26.71;35.67;100877.03;5033613;28;20383;-73
2022/07/02 10:08:05;;;;;;;0.33;0.17;;;;;;;27.25;34.78;100873.03;5025959;28;20410;-73
2022/07/02 10:10:38;;;;;;;1.20;0.20;;;;;;;27.43;34.29;100867.25;5014786;28;20419;-74
2022/07/02 10:13:06;;;;;;;0.13;0.13;;;;;;;27.75;33.60;100869.09;5029178;28;20482;-74
2022/07/02 10:15:32;;;;;;;1.00;0.23;;;;;;;28.56;32.38;100868.75;5025545;28;20781;-73
2022/07/02 10:18:00;;;;;;;0.80;0.30;;;;;;;30.01;30.45;100866.91;5027326;28;20504;-74
2022/07/02 10:20:28;;;;;;;0.50;0.20;;;;;;;30.95;28.72;100860.84;5009616;28;20403;-74
2022/07/02 10:22:53;;;;;;;1.20;0.20;;;;;;;31.64;27.60;100858.84;5026455;28;20417;-73
2022/07/02 10:25:19;;;;;;;1.90;0.32;;;;;;;31.91;27.15;100866.06;5032589;28;20611;-74
2022/07/02 10:27:46;;;;;;;0.50;0.17;;;;;;;32.50;26.21;100859.63;5032431;28;20402;-73
2022/07/02 10:30:14;;;;;;;2.80;0.20;;;;;;;33.47;24.97;100859.38;5027623;28;20415;-74
2022/07/02 10:33:00;;;;;;;1.70;0.20;;;;;;;34.24;24.15;100862.72;5016535;28;20420;-74
2022/07/02 10:35:27;;;;;;;0.80;0.20;;;;;;;34.67;23.54;100865.69;5040933;28;20456;-73
2022/07/02 10:38:00;;;;;;;1.40;0.20;;;;;;;35.01;22.67;100866.19;5010057;28;20409;-74
2022/07/02 10:40:27;;;;;;;1.80;0.15;;;;;;;35.45;22.42;100852.50;5014060;28;20909;-74
2022/07/02 10:42:59;;;;;;;0.68;0.20;;;;;;;35.91;21.59;100852.44;5019803;28;20385;-73
2022/07/02 10:45:25;;;;;;;0.70;0.17;;;;;;;36.20;21.50;100856.00;5024213;28;20396;-74
2022/07/02 10:48:03;;;;;;;0.10;0.10;;;;;;;36.45;21.08;100858.72;5031629;28;20399;-72
2022/07/02 10:50:38;;;;;;;1.10;0.22;;;;;;;36.38;20.48;100863.19;5021410;28;20426;-74
2022/07/02 10:53:17;;;;;;;0.35;0.10;;;;;;;36.43;20.53;100851.44;5027004;28;20430;-74
2022/07/02 10:56:03;;;;;;;0.45;0.15;;;;;;;36.66;20.32;100847.31;5027114;28;20482;-74
2022/07/02 10:58:31;;;;;;;0.20;0.20;;;;;;;36.68;19.97;100845.69;5020756;28;20420;-74
2022/07/02 11:01:07;;;;;;;6.00;1.10;;;;;;;36.75;19.58;100842.03;5007798;28;20418;-74
2022/07/02 11:03:34;;;;;;;1.00;0.20;;;;;;;37.06;19.79;100832.53;5031419;28;20419;-74
2022/07/02 11:06:04;;;;;;;0.10;0.10;;;;;;;37.39;19.33;100831.84;5028969;28;20434;-74
2022/07/02 11:09:00;;;;;;;0.20;0.20;;;;;;;37.85;18.80;100820.06;5006187;28;20961;-71
2022/07/02 11:11:40;;;;;;;0.10;0.10;;;;;;;38.27;18.30;100827.22;5005469;28;20432;-71
2022/07/02 11:14:13;;;;;;;1.00;0.20;;;;;;;38.58;17.87;100827.25;5009633;28;20463;-71
2022/07/02 11:16:44;;;;;;;0.38;0.30;;;;;;;38.83;17.85;100825.66;5003172;28;20909;-72
2022/07/02 11:19:24;;;;;;;0.50;0.20;;;;;;;38.82;17.27;100823.28;5017072;28;20439;-71
2022/07/02 11:21:51;;;;;;;0.80;0.23;;;;;;;39.11;17.04;100817.94;5030828;28;20407;-73
2022/07/02 11:24:19;;;;;;;0.30;0.15;;;;;;;39.38;16.86;100825.19;5013273;28;20406;-72
2022/07/02 11:26:45;;;;;;;0.67;0.20;;;;;;;39.52;16.69;100818.41;5009383;28;20420;-72